Quonset State Airport North Kingstown US
ICAO: KOQU
IATA: OQU
Category: Medium
Scheduled Services: No

Elevation: 18 ft
TransAlt. 18000 ft.

Airport Communications:
PROVIDENCE APP/DEP:135.4
CTAF:126.35
GND:134.5
ANG OPS:38.33
ARNG OPS:38.95
BRIDGEPORT RDO:122.3
TWR:126.35
UNICOM:122.95

KOQU Zoom In..

Runways:

(A) RW 05 length 4000 ft width 75 ft
---- / hdg 49

(B) RW 16 length 7504 ft width 150 ft
ILS 109.50 / hdg 160

(C) RW 23 length 4000 ft width 75 ft
---- / hdg 229

(D) RW 34 length 7504 ft width 150 ft
---- / hdg 340

Location; KOQU
Day. 15 / Time. 21.50 Zulu
* Altimeter: 29.92
* Temperature: 27° c. 80.6°f.
* Wind from: 160° Speed 08 kn.
Dewpoint: 22° c.
Visibility: 12 Statute Miles.
Clouds: Few 5000 ft.
Clouds: Broken 1000 ft.
Clouds: Broken 25000 ft.

KOQU 152150Z 16008KT 12SM FEW050 BKN100 BKN250 27/22 A2992 RMK LAST


Wind From 160°
Speed 08 kn.

 
 
jpsmedia.com for Web Design worldairports.se 2018   terms of use